Time;durP1;ratioP1;P1;durP2;ratioP2;P2;SDS_P1;SDS_P2;PMS_P1;PMS_P2;Temp;Humidity;BMP_temperature;BMP_pressure;BME280_temperature;BME280_humidity;BME280_pressure;Samples;Min_cycle;Max_cycle;Signal;HPM_P1;HPM_P2
2022/08/26 00:01:30;;;;;;;45.47;11.95;;;;;;;20.75;100.00;97750.47;4966244;28;20039;-52
2022/08/26 00:03:57;;;;;;;41.35;12.13;;;;;;;20.81;100.00;97749.09;4967732;28;20707;-53
2022/08/26 00:06:23;;;;;;;47.03;13.05;;;;;;;20.51;100.00;97753.38;4966558;28;20026;-52
2022/08/26 00:08:48;;;;;;;43.95;13.10;;;;;;;20.49;100.00;97754.47;4969571;28;20035;-52
2022/08/26 00:11:14;;;;;;;39.80;12.75;;;;;;;20.44;100.00;97757.53;4969231;28;20038;-52
2022/08/26 00:13:41;;;;;;;44.08;12.45;;;;;;;20.44;100.00;97762.81;4968802;28;20132;-53
2022/08/26 00:16:09;;;;;;;37.88;12.15;;;;;;;20.36;100.00;97758.16;4968926;28;20071;-53
2022/08/26 00:18:34;;;;;;;44.67;13.90;;;;;;;20.41;100.00;97757.78;4966901;28;20062;-52
2022/08/26 00:21:00;;;;;;;49.83;12.98;;;;;;;20.46;100.00;97750.28;4965727;28;20088;-52
2022/08/26 00:23:25;;;;;;;37.45;12.05;;;;;;;20.35;100.00;97745.06;4966985;28;20058;-53
2022/08/26 00:25:51;;;;;;;46.40;12.70;;;;;;;20.39;100.00;97749.13;4968004;28;20030;-52
2022/08/26 00:28:17;;;;;;;34.88;12.07;;;;;;;20.41;100.00;97748.00;4970186;28;20037;-53
2022/08/26 00:30:42;;;;;;;35.78;12.02;;;;;;;20.29;100.00;97756.16;4967642;28;20051;-52
2022/08/26 00:33:08;;;;;;;48.63;13.95;;;;;;;20.11;100.00;97767.34;4967429;28;20026;-54
2022/08/26 00:35:34;;;;;;;50.97;13.40;;;;;;;20.16;100.00;97770.47;4966031;28;20054;-54
2022/08/26 00:38:01;;;;;;;45.58;13.07;;;;;;;20.05;100.00;97767.03;4968293;28;20108;-53
2022/08/26 00:40:36;;;;;;;33.33;12.13;;;;;;;20.10;100.00;97770.97;4967800;28;20133;-52
2022/08/26 00:43:03;;;;;;;43.63;12.43;;;;;;;20.19;100.00;97766.72;4968976;28;20041;-54
2022/08/26 00:46:27;;;;;;;39.97;10.80;;;;;;;20.47;100.00;97762.53;4967537;28;20981;-52
2022/08/26 00:49:02;;;;;;;39.85;12.05;;;;;;;19.50;100.00;97782.94;4931968;28;20118;-52
2022/08/26 00:51:27;;;;;;;43.95;12.32;;;;;;;19.82;100.00;97778.53;4968712;28;20038;-54
2022/08/26 00:53:58;;;;;;;42.50;12.35;;;;;;;19.68;100.00;97776.16;4967503;28;20033;-54
2022/08/26 00:56:33;;;;;;;49.08;13.35;;;;;;;19.70;100.00;97779.50;4966982;28;20694;-53
2022/08/26 00:59:03;;;;;;;41.95;12.57;;;;;;;19.45;100.00;97781.53;4968845;28;20030;-54
2022/08/26 01:01:29;;;;;;;45.83;13.27;;;;;;;19.11;100.00;97787.84;4965744;28;20035;-52
2022/08/26 01:03:55;;;;;;;47.15;12.77;;;;;;;19.05;100.00;97795.28;4968992;28;20034;-53
2022/08/26 01:06:22;;;;;;;42.00;12.25;;;;;;;19.61;100.00;97796.13;4967196;28;20032;-54
2022/08/26 01:08:47;;;;;;;47.30;13.02;;;;;;;19.16;100.00;97786.50;4968281;28;20031;-53
2022/08/26 01:11:14;;;;;;;48.97;13.77;;;;;;;19.17;100.00;97792.63;4968509;28;20104;-52
2022/08/26 01:13:40;;;;;;;41.72;12.45;;;;;;;19.24;100.00;97783.25;4968656;28;20027;-55
2022/08/26 01:16:09;;;;;;;35.60;12.52;;;;;;;19.16;100.00;97796.25;4967721;28;20196;-52
2022/08/26 01:18:35;;;;;;;48.42;14.45;;;;;;;19.02;100.00;97800.81;4967846;28;20041;-54
2022/08/26 01:21:06;;;;;;;49.70;13.77;;;;;;;19.40;100.00;97793.44;4965517;28;20042;-52
2022/08/26 01:23:37;;;;;;;50.00;13.70;;;;;;;19.16;100.00;97793.59;4968056;28;20105;-53
2022/08/26 01:26:08;;;;;;;40.78;12.80;;;;;;;19.41;100.00;97795.97;4967192;28;20043;-52
2022/08/26 01:28:35;;;;;;;51.08;14.75;;;;;;;19.33;100.00;97795.72;4966485;28;20109;-54
2022/08/26 01:31:04;;;;;;;51.60;14.60;;;;;;;19.38;100.00;97793.56;4968288;28;20203;-53
2022/08/26 01:33:38;;;;;;;46.08;13.85;;;;;;;19.23;100.00;97797.44;4965095;28;20443;-53
2022/08/26 01:36:05;;;;;;;38.83;11.85;;;;;;;19.51;100.00;97789.94;4964100;28;20657;-54
2022/08/26 01:38:31;;;;;;;47.63;13.48;;;;;;;19.49;100.00;97786.56;4972304;28;20084;-53
2022/08/26 01:40:57;;;;;;;48.60;13.30;;;;;;;19.61;100.00;97780.25;4970077;28;20030;-53
2022/08/26 01:43:26;;;;;;;39.50;12.52;;;;;;;19.51;100.00;97779.34;4971550;28;20026;-53
2022/08/26 01:45:55;;;;;;;46.35;13.00;;;;;;;19.37;100.00;97786.59;4969626;28;20034;-52
2022/08/26 01:48:26;;;;;;;40.08;12.93;;;;;;;19.64;100.00;97777.38;4968690;28;20033;-53
2022/08/26 01:50:52;;;;;;;52.15;13.30;;;;;;;19.53;100.00;97782.72;4969542;28;20042;-52
2022/08/26 01:53:20;;;;;;;42.70;13.60;;;;;;;19.56;100.00;97787.75;4970030;28;20046;-53
2022/08/26 01:55:51;;;;;;;49.65;13.80;;;;;;;19.02;100.00;97795.53;4970449;28;20046;-54
2022/08/26 01:58:21;;;;;;;43.60;14.07;;;;;;;19.07;100.00;97796.00;4971213;28;20031;-53
2022/08/26 02:00:47;;;;;;;50.60;13.77;;;;;;;19.13;100.00;97796.47;4971487;28;20073;-53
2022/08/26 02:03:20;;;;;;;42.78;13.57;;;;;;;19.20;100.00;97797.66;4971191;28;20027;-52
2022/08/26 02:05:58;;;;;;;41.33;12.75;;;;;;;19.21;100.00;97789.63;4970090;28;20035;-54
2022/08/26 02:08:40;;;;;;;43.92;11.95;;;;;;;19.44;100.00;97787.75;4970096;28;20022;-52
2022/08/26 02:11:06;;;;;;;52.55;14.63;;;;;;;19.44;100.00;97784.28;4970307;28;20053;-53
2022/08/26 02:13:36;;;;;;;38.63;12.55;;;;;;;19.45;100.00;97781.53;4969214;28;20022;-53
2022/08/26 02:16:02;;;;;;;47.28;13.90;;;;;;;19.44;100.00;97779.81;4968714;28;20130;-55
2022/08/26 02:18:31;;;;;;;43.22;13.68;;;;;;;19.31;100.00;97779.16;4969982;28;20236;-52
2022/08/26 02:20:57;;;;;;;50.42;14.13;;;;;;;19.30;100.00;97776.63;4971520;28;20053;-54
2022/08/26 02:23:22;;;;;;;42.35;13.40;;;;;;;19.36;100.00;97776.16;4969684;28;20030;-53
2022/08/26 02:25:57;;;;;;;42.75;13.13;;;;;;;19.12;100.00;97778.94;4970903;28;20137;-53
2022/08/26 02:28:26;;;;;;;44.92;13.25;;;;;;;19.21;100.00;97783.50;4969581;28;20110;-53
2022/08/26 02:30:52;;;;;;;43.40;13.35;;;;;;;19.22;100.00;97780.72;4968866;28;20050;-52
2022/08/26 02:33:17;;;;;;;49.65;13.98;;;;;;;19.02;100.00;97779.69;4967943;28;20805;-53
2022/08/26 02:35:43;;;;;;;42.70;13.10;;;;;;;19.30;100.00;97782.78;4970021;28;20050;-52
2022/08/26 02:38:09;;;;;;;45.10;13.38;;;;;;;19.25;100.00;97784.94;4970015;28;20443;-53
2022/08/26 02:40:39;;;;;;;38.35;12.75;;;;;;;19.25;100.00;97782.28;4969263;28;20043;-52
2022/08/26 02:43:04;;;;;;;46.10;13.80;;;;;;;19.24;100.00;97778.81;4970735;28;20039;-53
2022/08/26 02:45:30;;;;;;;48.80;13.60;;;;;;;19.23;100.00;97784.22;4969489;28;20436;-53
2022/08/26 02:47:57;;;;;;;44.42;12.70;;;;;;;19.38;100.00;97777.69;4969259;28;20787;-53
2022/08/26 02:50:24;;;;;;;44.45;12.85;;;;;;;19.10;100.00;97784.34;4971354;28;21991;-53
2022/08/26 02:52:50;;;;;;;44.78;13.20;;;;;;;19.37;100.00;97778.66;4967607;28;20026;-53
2022/08/26 02:55:16;;;;;;;43.60;12.18;;;;;;;19.48;100.00;97779.59;4970187;28;20034;-53
2022/08/26 02:57:42;;;;;;;47.92;13.27;;;;;;;19.10;100.00;97787.00;4972788;28;20022;-55
2022/08/26 03:00:09;;;;;;;40.50;12.90;;;;;;;19.11;100.00;97779.91;4969242;28;20054;-53
2022/08/26 03:02:35;;;;;;;43.70;13.15;;;;;;;19.09;100.00;97787.13;4968637;28;20035;-52
2022/08/26 03:05:00;;;;;;;42.45;13.38;;;;;;;19.00;100.00;97783.38;4970556;28;20118;-52
2022/08/26 03:07:26;;;;;;;40.90;13.73;;;;;;;18.92;100.00;97778.72;4970221;28;20045;-52
2022/08/26 03:09:51;;;;;;;45.10;13.82;;;;;;;18.88;100.00;97787.84;4970543;28;20117;-53
2022/08/26 03:12:19;;;;;;;44.28;13.65;;;;;;;18.83;100.00;97782.91;4968281;28;20051;-54
2022/08/26 03:14:45;;;;;;;49.55;14.90;;;;;;;18.98;100.00;97778.22;4969124;28;20034;-53
2022/08/26 03:17:10;;;;;;;49.15;13.55;;;;;;;19.17;100.00;97771.47;4968188;28;20034;-54
2022/08/26 03:19:36;;;;;;;52.08;14.15;;;;;;;18.77;100.00;97778.09;4971844;28;20053;-52
2022/08/26 03:22:02;;;;;;;41.13;14.05;;;;;;;18.83;100.00;97772.34;4968139;28;20129;-52
2022/08/26 03:24:28;;;;;;;39.83;12.77;;;;;;;18.83;100.00;97774.16;4970305;28;20114;-53
2022/08/26 03:26:53;;;;;;;48.53;13.60;;;;;;;18.58;100.00;97770.75;4969110;28;20129;-53
2022/08/26 03:32:05;;;;;;;46.80;14.55;;;;;;;18.67;100.00;97769.19;4969294;28;20124;-53
2022/08/26 03:34:30;;;;;;;44.33;14.02;;;;;;;18.71;100.00;97762.72;4971270;28;20128;-52
2022/08/26 03:36:56;;;;;;;48.78;14.63;;;;;;;18.82;100.00;97768.03;4969131;28;20463;-52
2022/08/26 03:39:21;;;;;;;45.47;14.15;;;;;;;18.74;100.00;97772.19;4969987;28;20037;-52
2022/08/26 03:41:47;;;;;;;45.10;13.90;;;;;;;18.75;100.00;97765.94;4967757;28;20039;-52
2022/08/26 03:44:12;;;;;;;47.85;14.30;;;;;;;18.62;100.00;97776.66;4969125;28;20092;-52
2022/08/26 03:46:39;;;;;;;45.97;14.13;;;;;;;18.62;100.00;97769.56;4968807;28;20042;-52
2022/08/26 03:49:05;;;;;;;51.40;14.63;;;;;;;18.82;100.00;97767.16;4969147;28;20064;-52
2022/08/26 03:51:32;;;;;;;38.55;13.65;;;;;;;18.77;100.00;97774.59;4967557;28;20526;-53
2022/08/26 03:53:59;;;;;;;46.30;14.02;;;;;;;18.82;100.00;97767.16;4970210;28;20507;-53
2022/08/26 03:56:25;;;;;;;38.45;12.95;;;;;;;19.01;100.00;97761.28;4967332;28;20042;-53
2022/08/26 03:58:51;;;;;;;33.83;12.00;;;;;;;19.05;100.00;97763.56;4968794;28;20066;-54
2022/08/26 04:01:16;;;;;;;46.22;14.38;;;;;;;18.67;100.00;97775.31;4968510;28;20157;-53
2022/08/26 04:03:57;;;;;;;47.85;15.18;;;;;;;18.57;100.00;97769.06;4967790;28;20962;-52
2022/08/26 04:06:34;;;;;;;42.50;14.45;;;;;;;18.56;100.00;97772.66;4968381;28;20034;-54
2022/08/26 04:09:04;;;;;;;44.25;13.77;;;;;;;18.72;100.00;97772.31;4969931;28;20030;-53
2022/08/26 04:11:31;;;;;;;47.10;14.65;;;;;;;18.86;100.00;97768.63;4970133;28;20041;-52
2022/08/26 04:13:58;;;;;;;45.67;14.18;;;;;;;18.85;100.00;97773.06;4967772;28;20031;-52
2022/08/26 04:16:25;;;;;;;44.65;13.55;;;;;;;18.90;100.00;97762.16;4968404;28;20057;-53
2022/08/26 04:18:51;;;;;;;42.75;14.60;;;;;;;18.64;100.00;97775.56;4969355;28;20085;-54
2022/08/26 04:21:16;;;;;;;60.38;14.88;;;;;;;18.72;100.00;97771.47;4967153;28;20152;-54
2022/08/26 04:23:42;;;;;;;40.78;13.05;;;;;;;18.90;100.00;97766.59;4969750;28;20049;-55
2022/08/26 04:26:07;;;;;;;45.25;12.88;;;;;;;18.99;100.00;97765.88;4967557;28;20074;-52
2022/08/26 04:28:33;;;;;;;43.17;14.40;;;;;;;18.92;100.00;97768.16;4968402;28;20035;-54
2022/08/26 04:30:58;;;;;;;51.10;16.30;;;;;;;18.73;100.00;97768.72;4966032;28;20034;-54
2022/08/26 04:33:24;;;;;;;48.42;14.38;;;;;;;18.68;100.00;97776.16;4969136;28;20043;-52
2022/08/26 04:35:49;;;;;;;43.35;13.48;;;;;;;18.92;100.00;97770.78;4967274;28;20035;-52
2022/08/26 04:38:15;;;;;;;49.78;15.18;;;;;;;18.80;100.00;97767.28;4969440;28;20669;-54
2022/08/26 04:40:45;;;;;;;46.75;14.85;;;;;;;18.61;100.00;97775.78;4967444;28;20047;-52
2022/08/26 04:43:10;;;;;;;54.65;15.00;;;;;;;18.93;100.00;97764.56;4968061;28;20114;-53
2022/08/26 04:45:39;;;;;;;53.85;15.10;;;;;;;18.86;100.00;97760.72;4966299;28;20141;-52
2022/08/26 04:48:05;;;;;;;45.88;14.13;;;;;;;19.00;100.00;97760.44;4967929;28;20030;-52
2022/08/26 04:50:31;;;;;;;39.67;13.20;;;;;;;19.06;100.00;97757.31;4969624;28;20056;-52
2022/08/26 04:52:56;;;;;;;38.83;13.02;;;;;;;19.09;100.00;97758.88;4968998;28;20056;-53
2022/08/26 04:55:23;;;;;;;44.08;13.23;;;;;;;18.99;100.00;97758.78;4967696;28;20028;-53
2022/08/26 04:57:49;;;;;;;41.05;14.38;;;;;;;18.78;100.00;97766.53;4970433;28;20030;-53
2022/08/26 05:00:14;;;;;;;48.33;14.10;;;;;;;19.31;100.00;97773.03;4968049;28;20081;-53
2022/08/26 05:02:40;;;;;;;48.13;13.57;;;;;;;19.41;100.00;97755.47;4967551;28;20042;-53
2022/08/26 05:05:06;;;;;;;44.97;13.10;;;;;;;19.30;100.00;97756.31;4968972;28;20034;-52
2022/08/26 05:07:33;;;;;;;45.88;13.48;;;;;;;19.75;100.00;97750.91;4967032;28;20039;-53
2022/08/26 05:09:59;;;;;;;45.83;14.30;;;;;;;19.80;100.00;97754.03;4963784;28;20141;-54
2022/08/26 05:12:24;;;;;;;39.88;12.50;;;;;;;20.09;100.00;97755.19;4966956;28;20057;-57
2022/08/26 05:14:50;;;;;;;43.67;12.93;;;;;;;20.00;100.00;97748.88;4966334;28;20054;-53
2022/08/26 05:17:15;;;;;;;56.20;14.07;;;;;;;20.05;100.00;97757.25;4967200;28;20122;-53
2022/08/26 05:19:41;;;;;;;48.65;13.43;;;;;;;20.23;100.00;97755.72;4968149;28;20501;-53
2022/08/26 05:22:06;;;;;;;42.92;13.52;;;;;;;20.55;100.00;97749.50;4967237;28;20038;-54
2022/08/26 05:24:31;;;;;;;43.53;13.88;;;;;;;20.13;100.00;97760.13;4965788;28;20092;-56
2022/08/26 05:26:57;;;;;;;45.80;13.95;;;;;;;20.35;100.00;97759.16;4966270;28;20101;-53
2022/08/26 05:29:22;;;;;;;43.67;13.30;;;;;;;19.78;100.00;97755.97;4982368;28;20081;-53
2022/08/26 05:31:50;;;;;;;45.70;13.38;;;;;;;19.87;100.00;97756.16;4966331;28;20051;-53
2022/08/26 05:34:16;;;;;;;43.35;12.35;;;;;;;20.12;100.00;97747.84;4967395;28;20031;-53
2022/08/26 05:36:41;;;;;;;43.63;13.23;;;;;;;21.41;100.00;97737.66;4968439;28;20050;-54
2022/08/26 05:39:20;;;;;;;44.33;13.45;;;;;;;21.95;100.00;97728.34;4968347;28;20035;-52
2022/08/26 05:41:45;;;;;;;43.35;12.70;;;;;;;22.89;100.00;97723.06;4967653;28;20041;-53
2022/08/26 05:44:13;;;;;;;45.58;13.10;;;;;;;23.66;100.00;97710.28;4966426;28;20031;-52
2022/08/26 05:46:40;;;;;;;41.63;12.45;;;;;;;24.33;100.00;97716.97;4967396;28;20066;-54
2022/08/26 05:49:07;;;;;;;45.13;12.90;;;;;;;24.85;100.00;97700.09;4967688;28;20038;-55
2022/08/26 05:51:33;;;;;;;33.63;11.90;;;;;;;25.59;100.00;97703.84;4966541;28;20108;-52
2022/08/26 05:54:00;;;;;;;39.80;11.18;;;;;;;25.77;100.00;97695.69;4968214;28;20115;-53
2022/08/26 05:56:26;;;;;;;38.90;11.43;;;;;;;25.71;100.00;97696.31;4967272;28;20161;-53
2022/08/26 05:58:53;;;;;;;35.10;10.93;;;;;;;25.93;100.00;97695.72;4968144;28;20612;-52
2022/08/26 06:01:24;;;;;;;43.60;11.70;;;;;;;25.33;100.00;97696.78;4966974;28;20416;-54
2022/08/26 06:03:53;;;;;;;33.85;10.90;;;;;;;25.10;100.00;97704.53;4966593;28;20044;-52
2022/08/26 06:06:24;;;;;;;49.15;11.90;;;;;;;25.25;100.00;97698.59;4965806;28;20061;-55
2022/08/26 06:08:50;;;;;;;38.45;11.15;;;;;;;25.50;100.00;97700.31;4968432;28;20033;-53
2022/08/26 06:11:17;;;;;;;41.60;11.88;;;;;;;24.64;100.00;97698.69;4966237;28;20053;-53
2022/08/26 06:13:43;;;;;;;39.83;11.02;;;;;;;25.65;100.00;97697.00;4965229;28;20018;-52
2022/08/26 06:16:16;;;;;;;32.58;10.90;;;;;;;25.03;100.00;97706.16;4968108;28;20061;-54
2022/08/26 06:18:43;;;;;;;32.17;10.57;;;;;;;24.52;100.00;97702.56;4966918;28;20102;-53
2022/08/26 06:21:29;;;;;;;39.63;11.52;;;;;;;25.86;100.00;97697.34;4966027;28;20339;-54
2022/08/26 06:26:47;;;;;;;35.72;10.77;;;;;;;24.80;100.00;97703.25;4969511;28;20432;-53
2022/08/26 06:29:13;;;;;;;37.75;11.85;;;;;;;25.08;100.00;97711.03;4970925;28;20022;-52
2022/08/26 06:31:38;;;;;;;43.25;12.35;;;;;;;24.27;100.00;97715.78;4969458;28;20038;-52
2022/08/26 06:34:05;;;;;;;35.22;11.73;;;;;;;24.36;100.00;97717.50;4970149;28;20039;-53
2022/08/26 06:36:32;;;;;;;34.03;11.43;;;;;;;24.84;100.00;97703.78;4971573;28;20077;-53
2022/08/26 06:39:04;;;;;;;36.78;11.02;;;;;;;25.51;100.00;97702.00;4970051;28;20110;-55
2022/08/26 06:41:32;;;;;;;44.97;11.90;;;;;;;26.67;100.00;97698.25;4968306;28;20046;-52
2022/08/26 06:43:58;;;;;;;40.70;11.73;;;;;;;27.15;100.00;97695.53;4969846;28;20044;-55
2022/08/26 06:46:24;;;;;;;39.53;11.15;;;;;;;28.34;100.00;97695.16;4970917;28;20038;-54
2022/08/26 06:48:49;;;;;;;36.38;10.88;;;;;;;28.10;100.00;97691.72;4969984;28;20030;-52
2022/08/26 06:51:18;;;;;;;37.75;10.82;;;;;;;30.69;100.00;97700.16;4969801;28;20492;-54
2022/08/26 06:53:45;;;;;;;39.53;11.15;;;;;;;31.30;100.00;97697.56;4972521;28;20034;-53
2022/08/26 06:56:13;;;;;;;37.58;10.38;;;;;;;32.53;90.22;97688.31;4969539;28;20034;-53
2022/08/26 06:58:40;;;;;;;29.08;9.43;;;;;;;33.76;77.87;97694.69;4967993;28;20026;-52
2022/08/26 07:01:28;;;;;;;45.05;11.32;;;;;;;32.73;74.73;97688.28;4968945;28;20443;-52
2022/08/26 07:03:56;;;;;;;35.50;9.85;;;;;;;32.09;90.84;97697.91;4970306;28;20022;-52
2022/08/26 07:06:23;;;;;;;39.20;10.13;;;;;;;31.04;98.74;97692.06;4972257;28;20496;-54
2022/08/26 07:08:50;;;;;;;31.05;9.80;;;;;;;29.91;100.00;97692.97;4970051;28;20043;-52
2022/08/26 07:11:17;;;;;;;43.63;10.70;;;;;;;28.89;100.00;97693.91;4971062;28;20038;-53
2022/08/26 07:13:43;;;;;;;37.03;10.00;;;;;;;29.19;100.00;97699.28;4969736;28;20034;-54
2022/08/26 07:16:11;;;;;;;37.55;10.50;;;;;;;27.73;100.00;97692.50;4968888;28;20043;-53
2022/08/26 07:18:39;;;;;;;33.67;10.45;;;;;;;30.42;100.00;97689.25;4972069;28;20117;-52
2022/08/26 07:21:09;;;;;;;43.58;11.40;;;;;;;30.40;100.00;97685.91;4970019;28;20047;-52
2022/08/26 07:23:35;;;;;;;38.33;10.48;;;;;;;29.32;100.00;97687.84;4970912;28;20586;-54
2022/08/26 07:26:09;;;;;;;36.90;10.35;;;;;;;29.56;100.00;97694.69;4970636;28;20035;-55
2022/08/26 07:28:35;;;;;;;30.25;9.93;;;;;;;30.46;100.00;97687.84;4972055;28;20030;-53
2022/08/26 07:31:05;;;;;;;42.72;10.40;;;;;;;32.06;97.51;97693.78;4984682;28;20039;-55
2022/08/26 07:33:31;;;;;;;33.22;9.88;;;;;;;32.40;83.46;97691.88;4972778;28;20030;-54
2022/08/26 07:35:56;;;;;;;35.35;9.18;;;;;;;32.22;85.06;97697.09;4971133;28;20089;-55
2022/08/26 07:38:21;;;;;;;34.65;8.95;;;;;;;32.98;76.59;97698.41;4969979;28;20054;-54
2022/08/26 07:40:47;;;;;;;41.70;9.98;;;;;;;32.58;82.49;97695.81;4970955;28;20061;-53
2022/08/26 07:43:13;;;;;;;33.22;9.30;;;;;;;33.70;68.79;97690.16;4971572;28;20031;-53
2022/08/26 07:45:38;;;;;;;33.33;9.00;;;;;;;33.16;75.54;97695.00;4970645;28;20606;-53
2022/08/26 07:48:04;;;;;;;37.67;8.88;;;;;;;32.66;73.91;97690.19;4969288;28;20072;-54
2022/08/26 07:50:30;;;;;;;32.08;8.63;;;;;;;33.42;70.67;97694.88;4984797;28;20038;-54
2022/08/26 07:52:56;;;;;;;26.65;8.15;;;;;;;34.71;65.35;97691.78;4970605;28;20104;-52
2022/08/26 07:55:21;;;;;;;33.40;9.02;;;;;;;33.12;73.13;97693.78;4968044;28;20034;-53
2022/08/26 07:57:47;;;;;;;25.85;7.70;;;;;;;32.20;79.09;97685.66;4970049;28;20365;-53
2022/08/26 08:00:14;;;;;;;30.73;8.32;;;;;;;31.14;90.51;97676.38;4970095;28;20085;-55
2022/08/26 08:02:43;;;;;;;33.35;8.75;;;;;;;32.92;75.75;97683.03;4969447;28;20114;-54
2022/08/26 08:05:09;;;;;;;28.55;8.45;;;;;;;32.58;71.11;97679.63;4970617;28;20050;-56
2022/08/26 08:07:35;;;;;;;31.35;8.20;;;;;;;32.70;66.33;97680.63;4971007;28;20027;-59
2022/08/26 08:10:01;;;;;;;25.67;7.72;;;;;;;32.67;73.48;97683.75;4970435;28;20042;-57
2022/08/26 08:12:27;;;;;;;22.55;7.63;;;;;;;31.83;84.94;97680.66;4973223;28;20106;-56
2022/08/26 08:14:52;;;;;;;28.67;8.07;;;;;;;33.31;70.30;97681.25;4972108;28;20037;-55
2022/08/26 08:17:17;;;;;;;28.85;8.23;;;;;;;33.29;68.60;97673.34;4986959;28;20042;-58
2022/08/26 08:19:43;;;;;;;27.58;8.07;;;;;;;32.83;71.62;97677.06;4967881;28;20114;-56
2022/08/26 08:22:09;;;;;;;24.65;7.60;;;;;;;32.99;65.44;97667.63;4969159;28;20121;-56
2022/08/26 08:24:34;;;;;;;26.83;7.72;;;;;;;33.75;66.04;97677.66;4970781;28;20057;-54
2022/08/26 08:27:02;;;;;;;29.25;7.70;;;;;;;34.07;61.80;97668.66;4978267;28;20034;-55
2022/08/26 08:29:28;;;;;;;28.98;7.72;;;;;;;33.07;71.14;97662.00;4970370;28;20053;-55
2022/08/26 08:31:55;;;;;;;29.08;8.13;;;;;;;33.08;66.61;97662.81;4983329;28;20042;-55
2022/08/26 08:34:20;;;;;;;29.88;7.75;;;;;;;33.28;67.91;97666.28;4971691;28;20031;-55
2022/08/26 08:36:46;;;;;;;30.40;7.72;;;;;;;32.93;69.60;97655.00;4969067;28;20047;-53
2022/08/26 08:39:12;;;;;;;25.15;7.53;;;;;;;32.19;76.12;97659.75;4969943;28;20034;-54
2022/08/26 08:41:47;;;;;;;23.90;7.05;;;;;;;34.07;64.21;97663.25;4969879;28;20104;-57
2022/08/26 08:44:18;;;;;;;23.60;7.45;;;;;;;33.27;67.31;97663.78;4970632;28;20755;-54
2022/08/26 08:46:47;;;;;;;22.80;7.18;;;;;;;31.81;75.57;97661.16;4967808;28;20455;-54
2022/08/26 08:49:14;;;;;;;27.85;8.07;;;;;;;32.04;79.16;97655.41;4970318;28;20077;-54
2022/08/26 08:51:56;;;;;;;26.17;8.05;;;;;;;32.45;76.87;97648.88;4965847;28;20035;-53
2022/08/26 08:54:22;;;;;;;22.15;7.68;;;;;;;32.74;74.00;97649.47;4967153;28;20439;-53
2022/08/26 08:56:56;;;;;;;27.00;7.25;;;;;;;34.49;61.10;97644.53;4968945;28;20787;-52
2022/08/26 08:59:25;;;;;;;31.98;7.57;;;;;;;33.50;64.63;97642.44;4985323;28;20038;-52
2022/08/26 09:01:53;;;;;;;29.23;7.95;;;;;;;33.71;64.07;97643.97;4968860;28;20133;-55
2022/08/26 09:04:21;;;;;;;26.75;7.40;;;;;;;33.04;66.70;97643.50;4969328;28;20034;-53
2022/08/26 09:06:52;;;;;;;26.10;7.72;;;;;;;33.93;60.94;97641.72;4967877;28;20381;-54
2022/08/26 09:09:29;;;;;;;26.08;7.75;;;;;;;33.51;62.97;97638.69;4968723;28;20033;-54
2022/08/26 09:11:57;;;;;;;29.20;7.55;;;;;;;36.22;53.55;97642.13;4969968;28;20042;-53
2022/08/26 09:14:23;;;;;;;32.20;7.78;;;;;;;35.32;54.57;97638.50;4971726;28;20045;-55
2022/08/26 09:17:02;;;;;;;27.17;7.47;;;;;;;35.98;52.88;97630.41;4969143;28;20051;-54
2022/08/26 09:19:42;;;;;;;27.45;7.45;;;;;;;37.54;46.74;97626.03;4969024;28;20035;-54
2022/08/26 09:22:07;;;;;;;26.88;7.60;;;;;;;36.72;49.01;97624.47;4970411;28;20038;-55
2022/08/26 09:24:37;;;;;;;26.02;6.72;;;;;;;37.02;46.88;97613.38;4968107;28;20081;-54
2022/08/26 09:27:02;;;;;;;22.27;6.93;;;;;;;36.64;47.16;97628.34;4968327;28;20070;-54
2022/08/26 09:29:31;;;;;;;26.63;7.07;;;;;;;35.99;46.93;97617.66;4970399;28;20404;-54
2022/08/26 09:32:20;;;;;;;19.95;6.55;;;;;;;37.22;45.38;97617.56;4968546;28;20066;-54
2022/08/26 09:35:24;;;;;;;23.50;6.72;;;;;;;37.60;44.49;97611.44;4970368;28;20044;-53
2022/08/26 09:37:49;;;;;;;24.17;6.47;;;;;;;36.42;46.01;97603.72;4955661;28;20051;-53
2022/08/26 09:40:53;;;;;;;23.02;6.55;;;;;;;38.18;42.35;97601.22;4969342;28;20041;-54
2022/08/26 09:43:19;;;;;;;25.35;6.38;;;;;;;37.79;42.19;97600.31;4965435;28;20647;-54
2022/08/26 09:45:48;;;;;;;26.02;6.53;;;;;;;38.55;41.63;97595.19;4970659;28;20038;-53
2022/08/26 09:48:25;;;;;;;24.80;7.13;;;;;;;38.35;41.35;97594.91;4968889;28;20045;-53
2022/08/26 09:50:56;;;;;;;24.20;6.88;;;;;;;37.96;39.56;97592.16;4983317;28;20034;-53
2022/08/26 09:53:29;;;;;;;22.67;7.10;;;;;;;37.50;40.87;97580.50;4970592;28;20033;-54
2022/08/26 09:56:26;;;;;;;37.20;6.75;;;;;;;37.88;40.61;97581.69;4970318;28;20061;-56
2022/08/26 09:58:52;;;;;;;16.77;6.35;;;;;;;36.99;41.44;97575.81;4962863;28;20038;-55
2022/08/26 10:01:33;;;;;;;20.90;6.15;;;;;;;38.73;37.49;97566.81;4971610;28;20098;-55
2022/08/26 10:04:09;;;;;;;20.80;5.97;;;;;;;36.58;38.41;97564.13;4975329;28;20030;-55
2022/08/26 10:06:41;;;;;;;23.08;6.53;;;;;;;37.94;38.66;97553.50;4972608;28;20047;-54
2022/08/26 10:09:07;;;;;;;23.52;5.80;;;;;;;36.81;39.42;97546.13;4988534;28;20041;-54
2022/08/26 10:11:39;;;;;;;25.95;5.97;;;;;;;36.76;39.57;97540.59;4973563;28;20097;-53
2022/08/26 10:14:26;;;;;;;25.80;6.78;;;;;;;36.81;38.99;97541.50;4972116;28;20023;-54
2022/08/26 10:17:09;;;;;;;25.05;6.68;;;;;;;35.97;41.06;97543.78;4974682;28;20633;-53
2022/08/26 10:19:42;;;;;;;22.25;6.30;;;;;;;37.65;38.24;97540.00;4972853;28;20030;-53
2022/08/26 10:22:19;;;;;;;20.95;5.93;;;;;;;37.01;39.09;97527.47;4971530;28;20101;-54
2022/08/26 10:24:51;;;;;;;23.13;6.07;;;;;;;37.32;39.03;97525.31;4972971;28;20134;-54
2022/08/26 10:27:37;;;;;;;20.70;5.85;;;;;;;36.72;39.39;97517.69;4986020;28;20392;-53
2022/08/26 10:30:12;;;;;;;21.38;6.20;;;;;;;37.54;38.71;97508.25;4975063;28;20019;-54
2022/08/26 10:32:46;;;;;;;20.83;6.15;;;;;;;36.79;39.76;97511.03;4972184;28;20504;-54
2022/08/26 10:35:14;;;;;;;20.60;5.75;;;;;;;36.15;39.84;97516.50;4970103;28;20031;-53
2022/08/26 10:37:47;;;;;;;20.73;5.68;;;;;;;33.93;43.49;97511.88;4971565;28;20109;-54
2022/08/26 10:40:19;;;;;;;25.80;6.45;;;;;;;32.96;47.11;97514.13;4971918;28;20519;-53
2022/08/26 10:43:02;;;;;;;22.00;6.15;;;;;;;34.48;46.14;97505.63;4970408;28;20026;-54
2022/08/26 10:45:31;;;;;;;24.48;6.22;;;;;;;33.72;47.11;97502.28;4973648;28;20070;-53
2022/08/26 10:48:05;;;;;;;26.77;6.25;;;;;;;34.72;47.77;97487.63;4972704;28;20530;-54
2022/08/26 10:50:40;;;;;;;24.17;6.30;;;;;;;35.46;44.15;97486.47;4971710;28;20089;-54
2022/08/26 10:53:27;;;;;;;20.45;5.63;;;;;;;35.46;42.14;97486.47;4972643;28;20038;-57
2022/08/26 10:55:59;;;;;;;20.83;5.45;;;;;;;35.12;43.25;97491.59;4970328;28;20077;-53
2022/08/26 10:58:24;;;;;;;20.45;5.97;;;;;;;35.51;42.94;97489.28;4973066;28;20034;-53
2022/08/26 11:03:49;;;;;;;27.10;6.28;;;;;;;34.10;45.52;97485.03;4971612;28;20535;-53
2022/08/26 11:06:20;;;;;;;26.98;6.53;;;;;;;34.55;46.01;97486.56;4969180;28;20040;-53
2022/08/26 11:08:56;;;;;;;20.05;5.60;;;;;;;35.23;44.58;97479.16;4971298;28;20026;-54
2022/08/26 11:11:44;;;;;;;27.77;6.65;;;;;;;36.59;41.02;97478.03;4973361;28;20045;-53
2022/08/26 11:14:18;;;;;;;24.90;6.18;;;;;;;36.05;41.20;97486.44;4972296;28;20058;-53
2022/08/26 11:16:46;;;;;;;22.30;6.03;;;;;;;34.83;43.30;97482.44;4971345;28;20043;-53
2022/08/26 11:19:40;;;;;;;28.10;6.80;;;;;;;34.20;49.22;97484.53;4971100;28;20022;-53
2022/08/26 11:22:27;;;;;;;24.55;6.45;;;;;;;33.77;47.23;97490.81;4970831;28;20045;-53
2022/08/26 11:24:55;;;;;;;21.05;5.55;;;;;;;32.70;50.40;97483.53;4972383;28;20030;-55
2022/08/26 11:27:36;;;;;;;25.63;6.10;;;;;;;32.25;51.32;97483.50;4971706;28;20054;-55
2022/08/26 11:30:07;;;;;;;29.38;6.55;;;;;;;33.18;49.21;97483.00;4972574;28;20023;-54
2022/08/26 11:32:32;;;;;;;30.50;7.03;;;;;;;33.07;49.90;97478.28;4970139;28;20038;-55